sensor_id;sensor_type;location;lat;lon;timestamp;P1;durP1;ratioP1;P2;durP2;ratioP2
41875;SDS011;27555;50.808;4.402;2023-06-14T00:01:46;16.95;;;4.25;;
41875;SDS011;27555;50.808;4.402;2023-06-14T00:04:12;7.55;;;4.28;;
41875;SDS011;27555;50.808;4.402;2023-06-14T00:06:38;11.27;;;4.60;;
41875;SDS011;27555;50.808;4.402;2023-06-14T00:09:06;8.43;;;4.38;;
41875;SDS011;27555;50.808;4.402;2023-06-14T00:11:33;10.27;;;3.83;;
41875;SDS011;27555;50.808;4.402;2023-06-14T00:13:59;8.68;;;4.00;;
41875;SDS011;27555;50.808;4.402;2023-06-14T00:16:24;7.80;;;4.35;;
41875;SDS011;27555;50.808;4.402;2023-06-14T00:18:50;11.73;;;4.28;;
41875;SDS011;27555;50.808;4.402;2023-06-14T00:21:18;9.50;;;4.10;;
41875;SDS011;27555;50.808;4.402;2023-06-14T00:23:44;15.25;;;4.82;;
41875;SDS011;27555;50.808;4.402;2023-06-14T00:26:10;17.35;;;4.63;;
41875;SDS011;27555;50.808;4.402;2023-06-14T00:28:36;7.85;;;3.78;;
41875;SDS011;27555;50.808;4.402;2023-06-14T00:31:02;6.32;;;3.85;;
41875;SDS011;27555;50.808;4.402;2023-06-14T00:33:27;6.75;;;4.20;;
41875;SDS011;27555;50.808;4.402;2023-06-14T00:35:53;7.82;;;4.55;;
41875;SDS011;27555;50.808;4.402;2023-06-14T00:38:21;8.40;;;4.10;;
41875;SDS011;27555;50.808;4.402;2023-06-14T00:40:48;12.80;;;4.65;;
41875;SDS011;27555;50.808;4.402;2023-06-14T00:43:15;6.70;;;4.07;;
41875;SDS011;27555;50.808;4.402;2023-06-14T00:45:40;9.02;;;4.18;;
41875;SDS011;27555;50.808;4.402;2023-06-14T00:48:06;17.70;;;4.80;;
41875;SDS011;27555;50.808;4.402;2023-06-14T00:50:34;6.28;;;3.63;;
41875;SDS011;27555;50.808;4.402;2023-06-14T00:53:00;12.85;;;4.53;;
41875;SDS011;27555;50.808;4.402;2023-06-14T00:55:26;10.50;;;4.03;;
41875;SDS011;27555;50.808;4.402;2023-06-14T00:57:53;7.15;;;3.83;;
41875;SDS011;27555;50.808;4.402;2023-06-14T01:00:20;11.70;;;4.30;;
41875;SDS011;27555;50.808;4.402;2023-06-14T01:02:46;8.40;;;3.75;;
41875;SDS011;27555;50.808;4.402;2023-06-14T01:05:12;7.97;;;4.28;;
41875;SDS011;27555;50.808;4.402;2023-06-14T01:08:00;8.90;;;4.05;;
41875;SDS011;27555;50.808;4.402;2023-06-14T01:13:45;10.35;;;4.63;;
41875;SDS011;27555;50.808;4.402;2023-06-14T01:16:11;12.50;;;3.83;;
41875;SDS011;27555;50.808;4.402;2023-06-14T01:18:37;9.02;;;3.50;;
41875;SDS011;27555;50.808;4.402;2023-06-14T01:21:03;10.63;;;3.85;;
41875;SDS011;27555;50.808;4.402;2023-06-14T01:23:31;8.32;;;3.75;;
41875;SDS011;27555;50.808;4.402;2023-06-14T01:25:58;6.30;;;3.97;;
41875;SDS011;27555;50.808;4.402;2023-06-14T01:28:25;5.63;;;3.80;;
41875;SDS011;27555;50.808;4.402;2023-06-14T01:30:56;5.05;;;3.83;;
41875;SDS011;27555;50.808;4.402;2023-06-14T01:33:28;13.30;;;4.60;;
41875;SDS011;27555;50.808;4.402;2023-06-14T01:35:55;8.13;;;4.13;;
41875;SDS011;27555;50.808;4.402;2023-06-14T01:38:22;9.02;;;4.82;;
41875;SDS011;27555;50.808;4.402;2023-06-14T01:40:50;11.00;;;4.38;;
41875;SDS011;27555;50.808;4.402;2023-06-14T01:43:18;8.35;;;4.20;;
41875;SDS011;27555;50.808;4.402;2023-06-14T01:45:45;14.70;;;4.15;;
41875;SDS011;27555;50.808;4.402;2023-06-14T01:48:13;6.65;;;4.25;;
41875;SDS011;27555;50.808;4.402;2023-06-14T01:50:39;7.45;;;3.67;;
41875;SDS011;27555;50.808;4.402;2023-06-14T01:53:07;9.07;;;3.88;;
41875;SDS011;27555;50.808;4.402;2023-06-14T01:55:34;10.27;;;3.90;;
41875;SDS011;27555;50.808;4.402;2023-06-14T01:58:02;7.80;;;3.90;;
41875;SDS011;27555;50.808;4.402;2023-06-14T02:00:28;13.32;;;4.25;;
41875;SDS011;27555;50.808;4.402;2023-06-14T02:02:54;10.88;;;4.20;;
41875;SDS011;27555;50.808;4.402;2023-06-14T02:05:20;12.13;;;4.13;;
41875;SDS011;27555;50.808;4.402;2023-06-14T02:07:46;5.97;;;4.13;;
41875;SDS011;27555;50.808;4.402;2023-06-14T02:10:12;10.32;;;4.45;;
41875;SDS011;27555;50.808;4.402;2023-06-14T02:12:38;6.65;;;3.95;;
41875;SDS011;27555;50.808;4.402;2023-06-14T02:15:03;9.00;;;4.15;;
41875;SDS011;27555;50.808;4.402;2023-06-14T02:17:30;7.30;;;4.05;;
41875;SDS011;27555;50.808;4.402;2023-06-14T02:19:56;10.23;;;3.90;;
41875;SDS011;27555;50.808;4.402;2023-06-14T02:22:25;8.82;;;3.78;;
41875;SDS011;27555;50.808;4.402;2023-06-14T02:24:50;9.77;;;4.43;;
41875;SDS011;27555;50.808;4.402;2023-06-14T02:27:16;5.43;;;3.45;;
41875;SDS011;27555;50.808;4.402;2023-06-14T02:29:42;9.35;;;3.58;;
41875;SDS011;27555;50.808;4.402;2023-06-14T02:32:08;9.75;;;5.13;;
41875;SDS011;27555;50.808;4.402;2023-06-14T02:34:34;12.75;;;4.10;;
41875;SDS011;27555;50.808;4.402;2023-06-14T02:37:01;7.05;;;4.47;;
41875;SDS011;27555;50.808;4.402;2023-06-14T02:39:28;7.10;;;3.55;;
41875;SDS011;27555;50.808;4.402;2023-06-14T02:41:54;7.75;;;4.05;;
41875;SDS011;27555;50.808;4.402;2023-06-14T02:44:23;7.97;;;3.97;;
41875;SDS011;27555;50.808;4.402;2023-06-14T02:46:50;10.68;;;4.25;;
41875;SDS011;27555;50.808;4.402;2023-06-14T02:49:16;11.95;;;4.70;;
41875;SDS011;27555;50.808;4.402;2023-06-14T02:51:41;7.60;;;4.32;;
41875;SDS011;27555;50.808;4.402;2023-06-14T02:54:07;8.85;;;3.92;;
41875;SDS011;27555;50.808;4.402;2023-06-14T02:56:33;15.20;;;4.55;;
41875;SDS011;27555;50.808;4.402;2023-06-14T02:58:58;12.48;;;4.38;;
41875;SDS011;27555;50.808;4.402;2023-06-14T03:01:25;10.38;;;4.32;;
41875;SDS011;27555;50.808;4.402;2023-06-14T03:04:00;8.02;;;4.18;;
41875;SDS011;27555;50.808;4.402;2023-06-14T03:06:27;10.52;;;4.53;;
41875;SDS011;27555;50.808;4.402;2023-06-14T03:08:54;12.88;;;4.35;;
41875;SDS011;27555;50.808;4.402;2023-06-14T03:11:24;5.68;;;3.67;;
41875;SDS011;27555;50.808;4.402;2023-06-14T03:13:50;11.75;;;4.53;;
41875;SDS011;27555;50.808;4.402;2023-06-14T03:16:16;5.63;;;4.20;;
41875;SDS011;27555;50.808;4.402;2023-06-14T03:18:45;5.88;;;4.65;;
41875;SDS011;27555;50.808;4.402;2023-06-14T03:21:10;7.57;;;4.90;;
41875;SDS011;27555;50.808;4.402;2023-06-14T03:23:36;7.32;;;4.47;;
41875;SDS011;27555;50.808;4.402;2023-06-14T03:26:02;9.18;;;4.55;;
41875;SDS011;27555;50.808;4.402;2023-06-14T03:28:27;7.75;;;5.07;;
41875;SDS011;27555;50.808;4.402;2023-06-14T03:30:53;10.30;;;4.63;;
41875;SDS011;27555;50.808;4.402;2023-06-14T03:33:19;13.60;;;5.00;;
41875;SDS011;27555;50.808;4.402;2023-06-14T03:35:44;7.15;;;5.03;;
41875;SDS011;27555;50.808;4.402;2023-06-14T03:38:10;7.60;;;4.43;;
41875;SDS011;27555;50.808;4.402;2023-06-14T03:40:35;11.40;;;4.85;;
41875;SDS011;27555;50.808;4.402;2023-06-14T03:43:01;8.93;;;4.43;;
41875;SDS011;27555;50.808;4.402;2023-06-14T03:45:27;11.05;;;4.82;;
41875;SDS011;27555;50.808;4.402;2023-06-14T03:47:52;9.70;;;4.95;;
41875;SDS011;27555;50.808;4.402;2023-06-14T03:50:20;8.73;;;5.65;;
41875;SDS011;27555;50.808;4.402;2023-06-14T03:52:47;10.15;;;4.93;;
41875;SDS011;27555;50.808;4.402;2023-06-14T03:55:15;8.43;;;4.65;;
41875;SDS011;27555;50.808;4.402;2023-06-14T03:57:41;7.60;;;4.22;;
41875;SDS011;27555;50.808;4.402;2023-06-14T04:00:08;10.80;;;4.70;;
41875;SDS011;27555;50.808;4.402;2023-06-14T04:02:35;8.20;;;4.60;;
41875;SDS011;27555;50.808;4.402;2023-06-14T04:05:02;9.45;;;4.95;;
41875;SDS011;27555;50.808;4.402;2023-06-14T04:07:28;13.07;;;4.13;;
41875;SDS011;27555;50.808;4.402;2023-06-14T04:09:53;9.88;;;4.65;;
41875;SDS011;27555;50.808;4.402;2023-06-14T04:12:20;11.60;;;4.93;;
41875;SDS011;27555;50.808;4.402;2023-06-14T04:14:46;11.73;;;4.82;;
41875;SDS011;27555;50.808;4.402;2023-06-14T04:17:11;8.70;;;4.97;;
41875;SDS011;27555;50.808;4.402;2023-06-14T04:19:37;21.20;;;5.10;;
41875;SDS011;27555;50.808;4.402;2023-06-14T04:22:03;13.25;;;5.00;;
41875;SDS011;27555;50.808;4.402;2023-06-14T04:24:28;23.60;;;5.97;;
41875;SDS011;27555;50.808;4.402;2023-06-14T04:26:57;8.15;;;4.82;;
41875;SDS011;27555;50.808;4.402;2023-06-14T04:29:26;11.93;;;4.85;;
41875;SDS011;27555;50.808;4.402;2023-06-14T04:31:53;12.10;;;4.45;;
41875;SDS011;27555;50.808;4.402;2023-06-14T04:34:19;8.05;;;4.50;;
41875;SDS011;27555;50.808;4.402;2023-06-14T04:36:46;8.60;;;4.35;;
41875;SDS011;27555;50.808;4.402;2023-06-14T04:39:21;10.82;;;4.50;;
41875;SDS011;27555;50.808;4.402;2023-06-14T04:41:47;9.52;;;4.90;;
41875;SDS011;27555;50.808;4.402;2023-06-14T04:46:44;6.40;;;4.78;;
41875;SDS011;27555;50.808;4.402;2023-06-14T04:49:13;8.27;;;5.07;;
41875;SDS011;27555;50.808;4.402;2023-06-14T04:51:43;12.60;;;4.60;;
41875;SDS011;27555;50.808;4.402;2023-06-14T04:54:10;7.93;;;4.50;;
41875;SDS011;27555;50.808;4.402;2023-06-14T04:56:37;8.77;;;4.57;;
41875;SDS011;27555;50.808;4.402;2023-06-14T04:59:03;11.48;;;4.70;;
41875;SDS011;27555;50.808;4.402;2023-06-14T05:01:32;12.82;;;5.47;;
41875;SDS011;27555;50.808;4.402;2023-06-14T05:03:59;6.57;;;4.53;;
41875;SDS011;27555;50.808;4.402;2023-06-14T05:06:24;17.98;;;5.60;;
41875;SDS011;27555;50.808;4.402;2023-06-14T05:08:52;11.30;;;5.40;;
41875;SDS011;27555;50.808;4.402;2023-06-14T05:11:18;9.10;;;4.88;;
41875;SDS011;27555;50.808;4.402;2023-06-14T05:13:44;12.20;;;4.95;;
41875;SDS011;27555;50.808;4.402;2023-06-14T05:16:10;10.27;;;5.22;;
41875;SDS011;27555;50.808;4.402;2023-06-14T05:18:36;9.70;;;5.53;;
41875;SDS011;27555;50.808;4.402;2023-06-14T05:21:03;10.07;;;5.10;;
41875;SDS011;27555;50.808;4.402;2023-06-14T05:23:31;9.23;;;5.10;;
41875;SDS011;27555;50.808;4.402;2023-06-14T05:25:57;8.65;;;5.15;;
41875;SDS011;27555;50.808;4.402;2023-06-14T05:28:23;11.60;;;4.70;;
41875;SDS011;27555;50.808;4.402;2023-06-14T05:30:50;10.40;;;5.32;;
41875;SDS011;27555;50.808;4.402;2023-06-14T05:33:16;12.18;;;4.90;;
41875;SDS011;27555;50.808;4.402;2023-06-14T05:35:42;10.52;;;5.32;;
41875;SDS011;27555;50.808;4.402;2023-06-14T05:38:08;16.23;;;5.03;;
41875;SDS011;27555;50.808;4.402;2023-06-14T05:40:33;8.00;;;4.35;;
41875;SDS011;27555;50.808;4.402;2023-06-14T05:42:59;10.05;;;5.30;;
41875;SDS011;27555;50.808;4.402;2023-06-14T05:45:25;7.13;;;5.47;;
41875;SDS011;27555;50.808;4.402;2023-06-14T05:47:50;13.57;;;5.72;;
41875;SDS011;27555;50.808;4.402;2023-06-14T05:50:17;9.13;;;5.30;;
41875;SDS011;27555;50.808;4.402;2023-06-14T05:52:43;8.45;;;5.07;;
41875;SDS011;27555;50.808;4.402;2023-06-14T05:55:08;9.40;;;5.22;;
41875;SDS011;27555;50.808;4.402;2023-06-14T05:57:37;10.45;;;4.90;;
41875;SDS011;27555;50.808;4.402;2023-06-14T06:00:03;13.52;;;5.20;;
41875;SDS011;27555;50.808;4.402;2023-06-14T06:02:36;8.27;;;5.10;;
41875;SDS011;27555;50.808;4.402;2023-06-14T06:05:02;12.98;;;5.57;;
41875;SDS011;27555;50.808;4.402;2023-06-14T06:07:27;15.48;;;4.93;;
41875;SDS011;27555;50.808;4.402;2023-06-14T06:09:53;11.07;;;5.07;;
41875;SDS011;27555;50.808;4.402;2023-06-14T06:12:19;14.63;;;5.28;;
41875;SDS011;27555;50.808;4.402;2023-06-14T06:14:44;10.25;;;5.47;;
41875;SDS011;27555;50.808;4.402;2023-06-14T06:17:10;8.90;;;5.15;;
41875;SDS011;27555;50.808;4.402;2023-06-14T06:19:36;18.67;;;5.18;;
41875;SDS011;27555;50.808;4.402;2023-06-14T06:22:01;9.45;;;5.05;;
41875;SDS011;27555;50.808;4.402;2023-06-14T06:24:27;9.50;;;4.28;;
41875;SDS011;27555;50.808;4.402;2023-06-14T06:26:54;23.60;;;4.95;;
41875;SDS011;27555;50.808;4.402;2023-06-14T06:29:20;10.70;;;5.07;;
41875;SDS011;27555;50.808;4.402;2023-06-14T06:31:46;8.88;;;4.30;;
41875;SDS011;27555;50.808;4.402;2023-06-14T06:34:11;7.97;;;5.03;;
41875;SDS011;27555;50.808;4.402;2023-06-14T06:36:39;9.18;;;4.32;;
41875;SDS011;27555;50.808;4.402;2023-06-14T06:39:05;10.27;;;4.60;;
41875;SDS011;27555;50.808;4.402;2023-06-14T06:41:38;12.98;;;4.95;;
41875;SDS011;27555;50.808;4.402;2023-06-14T06:44:05;11.82;;;3.70;;
41875;SDS011;27555;50.808;4.402;2023-06-14T06:46:31;13.80;;;3.90;;
41875;SDS011;27555;50.808;4.402;2023-06-14T06:48:57;12.45;;;4.68;;
41875;SDS011;27555;50.808;4.402;2023-06-14T06:51:23;5.78;;;4.05;;
41875;SDS011;27555;50.808;4.402;2023-06-14T06:53:55;9.68;;;4.50;;
41875;SDS011;27555;50.808;4.402;2023-06-14T06:56:21;7.07;;;4.72;;
41875;SDS011;27555;50.808;4.402;2023-06-14T06:58:50;7.00;;;3.88;;
41875;SDS011;27555;50.808;4.402;2023-06-14T07:01:16;8.75;;;3.67;;
41875;SDS011;27555;50.808;4.402;2023-06-14T07:03:42;14.63;;;4.30;;
41875;SDS011;27555;50.808;4.402;2023-06-14T07:06:08;8.93;;;4.00;;
41875;SDS011;27555;50.808;4.402;2023-06-14T07:08:33;13.77;;;4.55;;
41875;SDS011;27555;50.808;4.402;2023-06-14T07:10:59;5.53;;;3.40;;
41875;SDS011;27555;50.808;4.402;2023-06-14T07:13:25;11.82;;;3.50;;
41875;SDS011;27555;50.808;4.402;2023-06-14T07:15:50;5.32;;;4.05;;
41875;SDS011;27555;50.808;4.402;2023-06-14T07:18:19;6.87;;;3.27;;
41875;SDS011;27555;50.808;4.402;2023-06-14T07:20:45;16.83;;;4.28;;
41875;SDS011;27555;50.808;4.402;2023-06-14T07:23:12;6.88;;;3.67;;
41875;SDS011;27555;50.808;4.402;2023-06-14T07:25:37;10.43;;;3.70;;
41875;SDS011;27555;50.808;4.402;2023-06-14T07:28:03;7.60;;;3.65;;
41875;SDS011;27555;50.808;4.402;2023-06-14T07:30:29;6.32;;;3.08;;
41875;SDS011;27555;50.808;4.402;2023-06-14T07:32:56;5.82;;;3.65;;
41875;SDS011;27555;50.808;4.402;2023-06-14T07:35:22;7.15;;;3.47;;
41875;SDS011;27555;50.808;4.402;2023-06-14T07:37:48;9.02;;;3.35;;
41875;SDS011;27555;50.808;4.402;2023-06-14T07:40:14;15.48;;;4.13;;
41875;SDS011;27555;50.808;4.402;2023-06-14T07:42:40;26.70;;;4.10;;
41875;SDS011;27555;50.808;4.402;2023-06-14T07:45:07;9.25;;;4.80;;
41875;SDS011;27555;50.808;4.402;2023-06-14T07:47:33;12.35;;;4.22;;
41875;SDS011;27555;50.808;4.402;2023-06-14T07:49:59;7.72;;;3.42;;
41875;SDS011;27555;50.808;4.402;2023-06-14T07:52:24;6.88;;;3.42;;
41875;SDS011;27555;50.808;4.402;2023-06-14T07:54:50;10.13;;;3.30;;
41875;SDS011;27555;50.808;4.402;2023-06-14T07:57:16;5.88;;;3.90;;
41875;SDS011;27555;50.808;4.402;2023-06-14T07:59:42;8.52;;;3.90;;
41875;SDS011;27555;50.808;4.402;2023-06-14T08:02:07;14.30;;;3.63;;
41875;SDS011;27555;50.808;4.402;2023-06-14T08:04:33;9.30;;;3.45;;
41875;SDS011;27555;50.808;4.402;2023-06-14T08:06:59;6.78;;;3.20;;
41875;SDS011;27555;50.808;4.402;2023-06-14T08:09:26;11.38;;;3.70;;
41875;SDS011;27555;50.808;4.402;2023-06-14T08:11:53;25.60;;;3.70;;
41875;SDS011;27555;50.808;4.402;2023-06-14T08:14:19;6.32;;;3.50;;
41875;SDS011;27555;50.808;4.402;2023-06-14T08:16:44;7.00;;;3.80;;
41875;SDS011;27555;50.808;4.402;2023-06-14T08:19:10;11.93;;;2.80;;
41875;SDS011;27555;50.808;4.402;2023-06-14T08:21:36;6.75;;;3.40;;
41875;SDS011;27555;50.808;4.402;2023-06-14T08:24:01;7.40;;;2.80;;
41875;SDS011;27555;50.808;4.402;2023-06-14T08:26:27;13.40;;;3.10;;
41875;SDS011;27555;50.808;4.402;2023-06-14T08:28:56;9.57;;;3.50;;
41875;SDS011;27555;50.808;4.402;2023-06-14T08:31:22;5.30;;;3.47;;
41875;SDS011;27555;50.808;4.402;2023-06-14T08:33:49;10.10;;;3.08;;
41875;SDS011;27555;50.808;4.402;2023-06-14T08:36:15;8.70;;;3.40;;
41875;SDS011;27555;50.808;4.402;2023-06-14T08:38:40;13.55;;;3.70;;
41875;SDS011;27555;50.808;4.402;2023-06-14T08:41:06;9.20;;;3.60;;
41875;SDS011;27555;50.808;4.402;2023-06-14T08:43:36;7.57;;;3.30;;
41875;SDS011;27555;50.808;4.402;2023-06-14T08:46:02;4.82;;;2.83;;
41875;SDS011;27555;50.808;4.402;2023-06-14T08:48:29;15.55;;;3.47;;
41875;SDS011;27555;50.808;4.402;2023-06-14T08:51:01;8.05;;;3.47;;
41875;SDS011;27555;50.808;4.402;2023-06-14T08:53:30;11.50;;;3.67;;
41875;SDS011;27555;50.808;4.402;2023-06-14T08:55:57;8.03;;;3.40;;
41875;SDS011;27555;50.808;4.402;2023-06-14T08:58:26;9.77;;;3.60;;
41875;SDS011;27555;50.808;4.402;2023-06-14T09:00:54;13.33;;;3.70;;
41875;SDS011;27555;50.808;4.402;2023-06-14T09:03:21;12.77;;;4.15;;
41875;SDS011;27555;50.808;4.402;2023-06-14T09:05:48;7.95;;;3.88;;
41875;SDS011;27555;50.808;4.402;2023-06-14T09:08:16;14.30;;;3.90;;
41875;SDS011;27555;50.808;4.402;2023-06-14T09:10:44;4.63;;;3.47;;
41875;SDS011;27555;50.808;4.402;2023-06-14T09:13:09;19.45;;;3.75;;
41875;SDS011;27555;50.808;4.402;2023-06-14T09:15:35;6.40;;;3.60;;
41875;SDS011;27555;50.808;4.402;2023-06-14T09:18:01;4.95;;;3.67;;
41875;SDS011;27555;50.808;4.402;2023-06-14T09:20:28;16.65;;;3.70;;
41875;SDS011;27555;50.808;4.402;2023-06-14T09:22:55;9.90;;;4.07;;
41875;SDS011;27555;50.808;4.402;2023-06-14T09:25:21;5.20;;;3.35;;
41875;SDS011;27555;50.808;4.402;2023-06-14T09:27:47;11.40;;;4.22;;
41875;SDS011;27555;50.808;4.402;2023-06-14T09:30:13;8.95;;;3.47;;
41875;SDS011;27555;50.808;4.402;2023-06-14T09:32:39;4.88;;;3.00;;
41875;SDS011;27555;50.808;4.402;2023-06-14T09:35:06;11.15;;;3.85;;
41875;SDS011;27555;50.808;4.402;2023-06-14T09:37:33;7.03;;;3.17;;
41875;SDS011;27555;50.808;4.402;2023-06-14T09:39:59;8.88;;;3.00;;
41875;SDS011;27555;50.808;4.402;2023-06-14T09:42:25;10.15;;;3.75;;
41875;SDS011;27555;50.808;4.402;2023-06-14T09:44:52;10.73;;;3.30;;
41875;SDS011;27555;50.808;4.402;2023-06-14T09:47:19;15.23;;;4.07;;
41875;SDS011;27555;50.808;4.402;2023-06-14T09:49:46;8.50;;;3.58;;
41875;SDS011;27555;50.808;4.402;2023-06-14T09:52:15;9.35;;;3.30;;
41875;SDS011;27555;50.808;4.402;2023-06-14T09:54:42;7.35;;;3.45;;
41875;SDS011;27555;50.808;4.402;2023-06-14T09:57:11;10.68;;;3.40;;
41875;SDS011;27555;50.808;4.402;2023-06-14T09:59:48;15.00;;;3.60;;
41875;SDS011;27555;50.808;4.402;2023-06-14T10:02:28;11.13;;;3.85;;
41875;SDS011;27555;50.808;4.402;2023-06-14T10:05:04;15.38;;;5.80;;
41875;SDS011;27555;50.808;4.402;2023-06-14T10:07:42;13.65;;;3.92;;
41875;SDS011;27555;50.808;4.402;2023-06-14T10:10:13;10.95;;;3.85;;
41875;SDS011;27555;50.808;4.402;2023-06-14T10:12:40;6.82;;;3.47;;
41875;SDS011;27555;50.808;4.402;2023-06-14T10:15:07;12.13;;;4.03;;
41875;SDS011;27555;50.808;4.402;2023-06-14T10:20:10;13.00;;;4.22;;
41875;SDS011;27555;50.808;4.402;2023-06-14T10:23:18;9.90;;;3.85;;
41875;SDS011;27555;50.808;4.402;2023-06-14T10:28:21;7.97;;;3.20;;
41875;SDS011;27555;50.808;4.402;2023-06-14T10:31:03;6.63;;;2.90;;
41875;SDS011;27555;50.808;4.402;2023-06-14T10:33:29;10.43;;;3.60;;
41875;SDS011;27555;50.808;4.402;2023-06-14T10:36:23;10.50;;;3.20;;
41875;SDS011;27555;50.808;4.402;2023-06-14T10:39:00;9.13;;;3.00;;
41875;SDS011;27555;50.808;4.402;2023-06-14T10:41:42;6.40;;;3.00;;
41875;SDS011;27555;50.808;4.402;2023-06-14T10:46:48;11.00;;;2.90;;
41875;SDS011;27555;50.808;4.402;2023-06-14T10:49:17;13.02;;;3.55;;
41875;SDS011;27555;50.808;4.402;2023-06-14T10:51:44;10.63;;;3.17;;
41875;SDS011;27555;50.808;4.402;2023-06-14T10:54:20;4.93;;;2.95;;
41875;SDS011;27555;50.808;4.402;2023-06-14T10:56:46;4.18;;;3.03;;
41875;SDS011;27555;50.808;4.402;2023-06-14T10:59:13;25.13;;;3.65;;
41875;SDS011;27555;50.808;4.402;2023-06-14T11:04:14;6.10;;;3.35;;
41875;SDS011;27555;50.808;4.402;2023-06-14T11:06:48;6.93;;;3.23;;
41875;SDS011;27555;50.808;4.402;2023-06-14T11:12:12;7.90;;;3.08;;
41875;SDS011;27555;50.808;4.402;2023-06-14T11:14:40;15.18;;;2.95;;
41875;SDS011;27555;50.808;4.402;2023-06-14T11:17:05;4.65;;;2.45;;
41875;SDS011;27555;50.808;4.402;2023-06-14T11:19:31;12.45;;;2.83;;
41875;SDS011;27555;50.808;4.402;2023-06-14T11:21:57;6.10;;;2.60;;
41875;SDS011;27555;50.808;4.402;2023-06-14T11:24:23;5.55;;;3.08;;
41875;SDS011;27555;50.808;4.402;2023-06-14T11:26:49;8.30;;;3.03;;
41875;SDS011;27555;50.808;4.402;2023-06-14T11:29:15;5.68;;;2.75;;
41875;SDS011;27555;50.808;4.402;2023-06-14T11:31:45;4.43;;;2.65;;
41875;SDS011;27555;50.808;4.402;2023-06-14T11:34:11;6.03;;;3.03;;
41875;SDS011;27555;50.808;4.402;2023-06-14T11:36:38;6.57;;;3.25;;
41875;SDS011;27555;50.808;4.402;2023-06-14T11:39:07;8.02;;;3.30;;
41875;SDS011;27555;50.808;4.402;2023-06-14T11:41:40;7.43;;;2.83;;
41875;SDS011;27555;50.808;4.402;2023-06-14T11:44:08;6.80;;;2.72;;
41875;SDS011;27555;50.808;4.402;2023-06-14T11:46:33;7.05;;;3.00;;
41875;SDS011;27555;50.808;4.402;2023-06-14T11:48:59;9.98;;;3.47;;
41875;SDS011;27555;50.808;4.402;2023-06-14T11:51:28;6.05;;;2.83;;
41875;SDS011;27555;50.808;4.402;2023-06-14T11:53:55;7.80;;;2.50;;
41875;SDS011;27555;50.808;4.402;2023-06-14T11:56:20;6.10;;;2.60;;
41875;SDS011;27555;50.808;4.402;2023-06-14T11:58:46;5.53;;;2.78;;
41875;SDS011;27555;50.808;4.402;2023-06-14T12:01:18;6.97;;;2.50;;
41875;SDS011;27555;50.808;4.402;2023-06-14T12:03:47;6.38;;;2.40;;
41875;SDS011;27555;50.808;4.402;2023-06-14T12:06:13;6.75;;;2.85;;
41875;SDS011;27555;50.808;4.402;2023-06-14T12:08:39;15.80;;;2.88;;
41875;SDS011;27555;50.808;4.402;2023-06-14T12:11:13;8.18;;;2.97;;
41875;SDS011;27555;50.808;4.402;2023-06-14T12:13:40;11.23;;;2.85;;
41875;SDS011;27555;50.808;4.402;2023-06-14T12:16:09;10.82;;;3.17;;
41875;SDS011;27555;50.808;4.402;2023-06-14T12:18:37;102.25;;;10.07;;
41875;SDS011;27555;50.808;4.402;2023-06-14T12:21:07;8.65;;;2.90;;
41875;SDS011;27555;50.808;4.402;2023-06-14T12:26:11;10.40;;;2.97;;
41875;SDS011;27555;50.808;4.402;2023-06-14T12:28:41;10.32;;;2.75;;
41875;SDS011;27555;50.808;4.402;2023-06-14T12:31:14;6.25;;;2.55;;
41875;SDS011;27555;50.808;4.402;2023-06-14T12:33:40;5.88;;;3.00;;
41875;SDS011;27555;50.808;4.402;2023-06-14T12:36:07;7.60;;;2.42;;
41875;SDS011;27555;50.808;4.402;2023-06-14T12:38:34;7.05;;;2.45;;
41875;SDS011;27555;50.808;4.402;2023-06-14T12:41:00;12.13;;;2.90;;
41875;SDS011;27555;50.808;4.402;2023-06-14T12:43:26;25.13;;;3.10;;
41875;SDS011;27555;50.808;4.402;2023-06-14T12:45:52;7.03;;;2.65;;
41875;SDS011;27555;50.808;4.402;2023-06-14T12:48:18;6.88;;;2.20;;
41875;SDS011;27555;50.808;4.402;2023-06-14T12:50:44;11.13;;;2.70;;
41875;SDS011;27555;50.808;4.402;2023-06-14T12:53:10;19.83;;;2.55;;
41875;SDS011;27555;50.808;4.402;2023-06-14T12:55:35;5.65;;;2.20;;
41875;SDS011;27555;50.808;4.402;2023-06-14T12:58:01;15.00;;;2.50;;
41875;SDS011;27555;50.808;4.402;2023-06-14T13:00:27;5.57;;;2.38;;
41875;SDS011;27555;50.808;4.402;2023-06-14T13:02:52;12.45;;;2.50;;
41875;SDS011;27555;50.808;4.402;2023-06-14T13:05:18;16.27;;;2.83;;
41875;SDS011;27555;50.808;4.402;2023-06-14T13:07:43;4.88;;;2.45;;
41875;SDS011;27555;50.808;4.402;2023-06-14T13:10:09;10.73;;;2.60;;
41875;SDS011;27555;50.808;4.402;2023-06-14T13:12:35;12.30;;;2.95;;
41875;SDS011;27555;50.808;4.402;2023-06-14T13:15:01;6.88;;;2.72;;
41875;SDS011;27555;50.808;4.402;2023-06-14T13:17:27;9.02;;;4.03;;
41875;SDS011;27555;50.808;4.402;2023-06-14T13:19:52;4.50;;;2.10;;
41875;SDS011;27555;50.808;4.402;2023-06-14T13:22:18;5.93;;;2.65;;
41875;SDS011;27555;50.808;4.402;2023-06-14T13:24:44;4.93;;;2.20;;
41875;SDS011;27555;50.808;4.402;2023-06-14T13:27:14;5.15;;;2.28;;
41875;SDS011;27555;50.808;4.402;2023-06-14T13:29:40;7.30;;;2.15;;
41875;SDS011;27555;50.808;4.402;2023-06-14T13:32:06;7.80;;;2.42;;
41875;SDS011;27555;50.808;4.402;2023-06-14T13:34:31;8.38;;;2.10;;
41875;SDS011;27555;50.808;4.402;2023-06-14T13:36:57;9.18;;;2.17;;
41875;SDS011;27555;50.808;4.402;2023-06-14T13:39:24;10.60;;;1.90;;
41875;SDS011;27555;50.808;4.402;2023-06-14T13:41:50;5.20;;;1.92;;
41875;SDS011;27555;50.808;4.402;2023-06-14T13:44:15;3.53;;;2.05;;
41875;SDS011;27555;50.808;4.402;2023-06-14T13:46:43;8.68;;;2.50;;
41875;SDS011;27555;50.808;4.402;2023-06-14T13:49:09;16.33;;;1.98;;
41875;SDS011;27555;50.808;4.402;2023-06-14T13:51:35;12.60;;;2.75;;
41875;SDS011;27555;50.808;4.402;2023-06-14T13:54:02;7.32;;;2.78;;
41875;SDS011;27555;50.808;4.402;2023-06-14T13:56:28;9.85;;;1.80;;
41875;SDS011;27555;50.808;4.402;2023-06-14T13:58:54;3.80;;;2.05;;
41875;SDS011;27555;50.808;4.402;2023-06-14T14:01:21;5.60;;;2.00;;
41875;SDS011;27555;50.808;4.402;2023-06-14T14:03:47;9.88;;;1.70;;
41875;SDS011;27555;50.808;4.402;2023-06-14T14:06:14;5.70;;;1.90;;
41875;SDS011;27555;50.808;4.402;2023-06-14T14:08:41;12.55;;;2.03;;
41875;SDS011;27555;50.808;4.402;2023-06-14T14:11:07;4.45;;;2.03;;
41875;SDS011;27555;50.808;4.402;2023-06-14T14:13:33;5.25;;;1.33;;
41875;SDS011;27555;50.808;4.402;2023-06-14T14:16:01;8.70;;;1.63;;
41875;SDS011;27555;50.808;4.402;2023-06-14T14:18:28;6.43;;;1.65;;
41875;SDS011;27555;50.808;4.402;2023-06-14T14:20:54;8.65;;;2.08;;
41875;SDS011;27555;50.808;4.402;2023-06-14T14:23:20;11.07;;;1.70;;
41875;SDS011;27555;50.808;4.402;2023-06-14T14:25:46;11.23;;;1.77;;
41875;SDS011;27555;50.808;4.402;2023-06-14T14:28:12;3.38;;;1.52;;
41875;SDS011;27555;50.808;4.402;2023-06-14T14:30:40;3.35;;;1.60;;
41875;SDS011;27555;50.808;4.402;2023-06-14T14:33:07;5.10;;;1.58;;
41875;SDS011;27555;50.808;4.402;2023-06-14T14:35:33;6.63;;;1.45;;
41875;SDS011;27555;50.808;4.402;2023-06-14T14:37:58;4.55;;;1.35;;
41875;SDS011;27555;50.808;4.402;2023-06-14T14:40:24;3.10;;;1.05;;
41875;SDS011;27555;50.808;4.402;2023-06-14T14:42:50;8.13;;;2.20;;
41875;SDS011;27555;50.808;4.402;2023-06-14T14:45:15;3.97;;;1.20;;
41875;SDS011;27555;50.808;4.402;2023-06-14T14:47:41;5.53;;;1.20;;
41875;SDS011;27555;50.808;4.402;2023-06-14T14:50:07;8.05;;;1.30;;
41875;SDS011;27555;50.808;4.402;2023-06-14T14:52:35;2.75;;;1.05;;
41875;SDS011;27555;50.808;4.402;2023-06-14T14:55:01;4.68;;;1.00;;
41875;SDS011;27555;50.808;4.402;2023-06-14T14:57:27;3.95;;;0.98;;
41875;SDS011;27555;50.808;4.402;2023-06-14T14:59:54;3.05;;;0.90;;
41875;SDS011;27555;50.808;4.402;2023-06-14T15:02:20;5.50;;;1.10;;
41875;SDS011;27555;50.808;4.402;2023-06-14T15:04:47;4.40;;;1.00;;